createdAt,value
2022-12-05T00:00:15.484Z,14.60
2022-12-05T00:04:17.162Z,19.88
2022-12-05T00:08:18.907Z,12.55
2022-12-05T00:12:21.262Z,12.45
2022-12-05T00:16:25.241Z,15.80
2022-12-05T00:20:26.972Z,14.10
2022-12-05T00:24:28.635Z,13.68
2022-12-05T00:28:31.729Z,15.00
2022-12-05T00:32:33.449Z,12.70
2022-12-05T00:36:35.910Z,13.98
2022-12-05T00:40:37.521Z,12.43
2022-12-05T00:44:39.157Z,13.43
2022-12-05T00:48:41.069Z,12.52
2022-12-05T00:52:42.748Z,13.38
2022-12-05T00:56:45.466Z,12.70
2022-12-05T01:00:47.177Z,12.15
2022-12-05T01:04:48.856Z,13.07
2022-12-05T01:08:51.705Z,11.70
2022-12-05T01:12:53.315Z,13.85
2022-12-05T01:16:56.329Z,17.17
2022-12-05T01:20:58.161Z,14.45
2022-12-05T01:24:59.870Z,12.93
2022-12-05T01:29:01.584Z,14.35
2022-12-05T01:33:03.287Z,12.95
2022-12-05T01:37:04.928Z,12.55
2022-12-05T01:41:08.926Z,12.48
2022-12-05T01:45:17.848Z,12.05
2022-12-05T01:49:31.227Z,12.35
2022-12-05T01:53:34.010Z,15.50
2022-12-05T01:57:36.349Z,11.77
2022-12-05T02:01:38.869Z,13.55
2022-12-05T02:05:41.109Z,14.50
2022-12-05T02:09:42.842Z,11.88
2022-12-05T02:14:05.614Z,11.85
2022-12-05T02:18:51.414Z,16.48
2022-12-05T02:23:14.290Z,12.20
2022-12-05T02:27:21.766Z,13.27
2022-12-05T02:31:44.870Z,11.18
2022-12-05T02:36:11.351Z,12.73
2022-12-05T02:40:26.187Z,11.40
2022-12-05T02:44:46.556Z,11.20
2022-12-05T02:48:50.794Z,13.05
2022-12-05T02:52:56.650Z,12.63
2022-12-05T02:57:00.013Z,14.43
2022-12-05T03:01:05.059Z,12.82
2022-12-05T03:05:19.725Z,13.57
2022-12-05T03:09:42.805Z,12.20
2022-12-05T03:13:58.038Z,13.82
2022-12-05T03:18:09.041Z,11.20
2022-12-05T03:22:39.054Z,11.30
2022-12-05T03:27:16.150Z,11.88
2022-12-05T03:31:25.409Z,12.68
2022-12-05T03:35:51.433Z,12.10
2022-12-05T03:40:10.432Z,11.57
2022-12-05T03:44:15.674Z,13.65
2022-12-05T03:48:29.952Z,14.53
2022-12-05T03:52:57.193Z,11.55
2022-12-05T03:57:24.188Z,11.48
2022-12-05T04:01:30.412Z,10.20
2022-12-05T04:05:55.394Z,10.90
2022-12-05T04:10:02.343Z,11.73
2022-12-05T04:14:14.852Z,10.68
2022-12-05T04:18:20.419Z,12.63
2022-12-05T04:22:24.855Z,11.05
2022-12-05T04:26:31.634Z,12.20
2022-12-05T04:30:42.977Z,11.95
2022-12-05T04:34:54.580Z,12.63
2022-12-05T04:39:04.185Z,10.23
2022-12-05T04:43:08.280Z,10.20
2022-12-05T04:47:14.636Z,11.25
2022-12-05T04:51:20.187Z,11.23
2022-12-05T04:55:28.188Z,11.68
2022-12-05T04:59:30.274Z,10.82
2022-12-05T05:03:44.383Z,11.57
2022-12-05T05:07:48.682Z,10.57
2022-12-05T05:11:50.403Z,10.80
2022-12-05T05:15:52.276Z,12.60
2022-12-05T05:20:16.886Z,9.80
2022-12-05T05:24:23.259Z,12.57
2022-12-05T05:28:25.064Z,11.55
2022-12-05T05:32:26.750Z,11.50
2022-12-05T05:36:29.094Z,11.07
2022-12-05T05:40:30.923Z,12.30
2022-12-05T05:44:32.798Z,10.70
2022-12-05T05:48:34.862Z,12.38
2022-12-05T05:52:37.528Z,10.77
2022-12-05T05:56:40.173Z,10.02
2022-12-05T06:00:41.833Z,12.15
2022-12-05T06:04:43.477Z,11.80
2022-12-05T06:08:45.606Z,11.48
2022-12-05T06:12:47.376Z,14.82
2022-12-05T06:16:49.205Z,13.40
2022-12-05T06:20:55.822Z,13.38
2022-12-05T06:24:57.893Z,13.93
2022-12-05T06:28:59.661Z,12.20
2022-12-05T06:33:01.305Z,15.98
2022-12-05T06:37:03.044Z,16.35
2022-12-05T06:41:09.167Z,15.90
2022-12-05T06:49:13.201Z,13.52
2022-12-05T06:53:15.319Z,18.35
2022-12-05T06:57:17.041Z,19.27
2022-12-05T07:01:40.818Z,19.77
2022-12-05T07:05:42.717Z,19.95
2022-12-05T07:09:51.235Z,19.83
2022-12-05T07:13:52.976Z,20.10
2022-12-05T07:17:54.583Z,17.85
2022-12-05T07:21:56.185Z,20.40
2022-12-05T07:25:57.896Z,19.17
2022-12-05T07:29:59.773Z,15.38
2022-12-05T07:34:01.544Z,18.60
2022-12-05T07:38:03.492Z,20.25
2022-12-05T07:42:05.169Z,18.77
2022-12-05T07:46:08.545Z,19.13
2022-12-05T07:50:10.777Z,18.33
2022-12-05T07:54:12.442Z,23.30
2022-12-05T07:58:14.031Z,19.02
2022-12-05T08:02:15.829Z,21.02
2022-12-05T08:06:21.122Z,15.15
2022-12-05T08:10:22.895Z,16.23
2022-12-05T08:14:24.530Z,19.27
2022-12-05T08:18:27.619Z,22.15
2022-12-05T08:22:29.505Z,20.33
2022-12-05T08:26:32.133Z,18.08
2022-12-05T08:30:34.794Z,19.15
2022-12-05T08:34:36.837Z,16.60
2022-12-05T08:38:38.632Z,17.10
2022-12-05T08:42:40.259Z,21.13
2022-12-05T08:46:43.679Z,17.05
2022-12-05T08:50:45.794Z,18.00
2022-12-05T08:54:47.614Z,17.73
2022-12-05T08:58:49.678Z,17.05
2022-12-05T09:02:54.177Z,19.55
2022-12-05T09:06:55.850Z,17.10
2022-12-05T09:10:57.484Z,21.17
2022-12-05T09:15:00.501Z,17.08
2022-12-05T09:19:02.483Z,18.45
2022-12-05T09:23:04.261Z,16.38
2022-12-05T09:27:05.931Z,21.50
2022-12-05T09:31:14.052Z,17.55
2022-12-05T09:35:16.170Z,15.93
2022-12-05T09:39:18.066Z,19.92
2022-12-05T09:43:41.515Z,16.88
2022-12-05T09:48:06.019Z,15.57
2022-12-05T09:52:11.038Z,18.27
2022-12-05T09:56:22.354Z,16.95
2022-12-05T10:00:25.419Z,22.40
2022-12-05T10:04:44.515Z,15.93
2022-12-05T10:09:10.278Z,21.90
2022-12-05T10:13:39.117Z,20.90
2022-12-05T10:17:50.753Z,16.70
2022-12-05T10:21:56.607Z,19.42
2022-12-05T10:26:01.943Z,15.55
2022-12-05T10:30:15.047Z,17.33
2022-12-05T10:34:27.870Z,15.55
2022-12-05T10:38:31.576Z,13.40
2022-12-05T10:42:35.891Z,21.98
2022-12-05T10:46:37.707Z,15.73
2022-12-05T10:50:42.380Z,16.83
2022-12-05T10:54:57.416Z,16.60
2022-12-05T10:59:00.562Z,15.90
2022-12-05T11:03:05.432Z,17.65
2022-12-05T11:07:07.063Z,15.18
2022-12-05T11:11:23.468Z,14.52
2022-12-05T11:19:34.148Z,11.60
2022-12-05T11:23:35.845Z,16.73
2022-12-05T11:27:37.512Z,12.73
2022-12-05T11:31:39.228Z,15.68
2022-12-05T11:35:41.738Z,10.73
2022-12-05T11:39:43.543Z,15.63
2022-12-05T11:44:01.678Z,12.48
2022-12-05T11:48:09.738Z,12.90
2022-12-05T11:52:34.773Z,12.43
2022-12-05T11:56:58.564Z,13.50
2022-12-05T12:01:12.251Z,12.80
2022-12-05T12:05:19.153Z,11.23
2022-12-05T12:09:34.613Z,12.43
2022-12-05T12:13:57.095Z,11.18
2022-12-05T12:18:14.654Z,16.35
2022-12-05T12:22:52.317Z,25.25
2022-12-05T12:27:20.158Z,19.15
2022-12-05T12:31:52.740Z,20.25
2022-12-05T12:36:10.866Z,16.23
2022-12-05T12:40:14.406Z,20.20
2022-12-05T12:44:43.509Z,19.83
2022-12-05T12:49:07.850Z,20.75
2022-12-05T12:53:47.077Z,21.02
2022-12-05T12:58:14.859Z,25.23
2022-12-05T13:02:47.530Z,21.95
2022-12-05T13:07:01.383Z,27.95
2022-12-05T13:11:07.769Z,31.88
2022-12-05T13:15:41.116Z,34.72
2022-12-05T13:19:47.754Z,40.58
2022-12-05T13:23:52.151Z,33.88
2022-12-05T13:27:58.174Z,33.10
2022-12-05T13:32:05.170Z,34.22
2022-12-05T13:36:28.792Z,36.53
2022-12-05T13:40:55.742Z,33.55
2022-12-05T13:45:16.523Z,35.40
2022-12-05T13:49:30.140Z,32.95
2022-12-05T13:53:42.311Z,39.50
2022-12-05T13:57:47.832Z,36.88
2022-12-05T14:01:55.820Z,30.17
2022-12-05T14:05:58.116Z,35.08
2022-12-05T14:10:00.103Z,29.13
2022-12-05T14:14:04.886Z,32.40
2022-12-05T14:18:18.514Z,32.75
2022-12-05T14:22:36.929Z,31.58
2022-12-05T14:26:59.717Z,26.38
2022-12-05T14:31:21.906Z,30.92
2022-12-05T14:35:40.489Z,30.20
2022-12-05T14:39:52.117Z,34.33
2022-12-05T14:43:56.199Z,27.40
2022-12-05T14:48:00.694Z,29.38
2022-12-05T14:52:11.596Z,28.80
2022-12-05T14:56:20.439Z,27.10
2022-12-05T15:00:23.176Z,26.13
2022-12-05T15:04:41.654Z,26.73
2022-12-05T15:08:49.965Z,28.20
2022-12-05T15:13:00.036Z,26.60
2022-12-05T15:17:03.187Z,24.98
2022-12-05T15:21:56.756Z,22.30
2022-12-05T15:26:12.116Z,24.42
2022-12-05T15:30:20.230Z,25.90
2022-12-05T15:34:30.639Z,23.33
2022-12-05T15:38:34.784Z,23.10
2022-12-05T15:42:47.336Z,24.15
2022-12-05T15:46:56.515Z,21.52
2022-12-05T15:50:58.292Z,23.40
2022-12-05T15:55:06.830Z,20.40
2022-12-05T15:59:25.978Z,18.98
2022-12-05T16:03:38.841Z,24.85
2022-12-05T16:07:40.554Z,22.02
2022-12-05T16:12:00.983Z,21.92
2022-12-05T16:16:05.752Z,22.17
2022-12-05T16:20:16.370Z,22.42
2022-12-05T16:24:21.609Z,20.15
2022-12-05T16:28:23.599Z,18.80
2022-12-05T16:32:25.718Z,16.92
2022-12-05T16:36:27.393Z,20.40
2022-12-05T16:40:29.108Z,17.15
2022-12-05T16:44:46.269Z,18.13
2022-12-05T16:49:15.120Z,18.52
2022-12-05T16:53:28.384Z,18.65
2022-12-05T16:57:30.225Z,20.90
2022-12-05T17:01:37.144Z,16.80
2022-12-05T17:05:40.625Z,26.00
2022-12-05T17:09:42.259Z,17.73
2022-12-05T17:13:45.202Z,20.45
2022-12-05T17:17:47.044Z,20.08
2022-12-05T17:21:48.899Z,21.70
2022-12-05T17:25:55.551Z,23.15
2022-12-05T17:29:57.553Z,22.15
2022-12-05T17:33:59.395Z,22.98
2022-12-05T17:38:01.174Z,23.83
2022-12-05T17:42:02.925Z,26.42
2022-12-05T17:46:05.500Z,21.55
2022-12-05T17:50:11.895Z,26.67
2022-12-05T17:54:13.528Z,18.52
2022-12-05T17:58:15.874Z,24.25
2022-12-05T18:02:19.725Z,23.25
2022-12-05T18:06:21.331Z,20.98
2022-12-05T18:10:24.538Z,23.98
2022-12-05T18:14:28.229Z,25.77
2022-12-05T18:18:30.770Z,26.13
2022-12-05T18:22:33.932Z,24.55
2022-12-05T18:26:35.574Z,30.77
2022-12-05T18:30:37.423Z,30.88
2022-12-05T18:34:39.051Z,24.73
2022-12-05T18:38:42.554Z,31.00
2022-12-05T18:42:44.153Z,25.70
2022-12-05T18:46:45.818Z,30.83
2022-12-05T18:50:47.456Z,34.67
2022-12-05T18:55:03.355Z,35.30
2022-12-05T18:59:17.859Z,35.58
2022-12-05T19:03:19.488Z,32.45
2022-12-05T19:07:21.137Z,30.52
2022-12-05T19:11:24.280Z,39.83
2022-12-05T19:15:25.903Z,33.63
2022-12-05T19:19:28.213Z,37.40
2022-12-05T19:23:32.683Z,33.72
2022-12-05T19:27:34.424Z,34.42
2022-12-05T19:31:36.225Z,33.03
2022-12-05T19:35:37.897Z,34.05
2022-12-05T19:39:39.510Z,38.38
2022-12-05T19:43:42.858Z,36.33
2022-12-05T19:47:44.490Z,37.85
2022-12-05T19:51:46.426Z,32.05
2022-12-05T19:55:48.034Z,34.70
2022-12-05T19:59:49.718Z,40.67
2022-12-05T20:03:56.824Z,39.67
2022-12-05T20:07:58.483Z,40.17
2022-12-05T20:12:03.964Z,26.77
2022-12-05T20:16:08.819Z,24.83
2022-12-05T20:20:10.879Z,33.42
2022-12-05T20:24:12.537Z,23.90
2022-12-05T20:28:15.490Z,30.50
2022-12-05T20:32:17.532Z,31.55
2022-12-05T20:36:21.079Z,33.30
2022-12-05T20:40:22.708Z,26.63
2022-12-05T20:44:24.616Z,24.00
2022-12-05T20:48:26.435Z,27.05
2022-12-05T20:52:28.105Z,28.02
2022-12-05T20:56:32.216Z,29.20
2022-12-05T21:00:33.838Z,23.27
2022-12-05T21:04:38.972Z,33.42
2022-12-05T21:08:41.240Z,38.33
2022-12-05T21:12:42.895Z,27.00
2022-12-05T21:16:52.230Z,29.15
2022-12-05T21:21:18.052Z,31.55
2022-12-05T21:25:19.922Z,28.52
2022-12-05T21:29:21.549Z,30.67
2022-12-05T21:33:28.554Z,25.83
2022-12-05T21:37:30.580Z,28.90
2022-12-05T21:41:32.473Z,25.33
2022-12-05T21:45:42.939Z,27.80
2022-12-05T21:49:45.649Z,31.63
2022-12-05T21:53:47.432Z,23.92
2022-12-05T21:57:49.094Z,32.22
2022-12-05T22:01:50.713Z,27.98
2022-12-05T22:06:03.520Z,29.48
2022-12-05T22:10:06.048Z,23.42
2022-12-05T22:14:08.281Z,24.23
2022-12-05T22:18:10.943Z,23.77
2022-12-05T22:22:12.568Z,26.75
2022-12-05T22:26:21.424Z,22.40
2022-12-05T22:30:23.158Z,25.98
2022-12-05T22:34:24.775Z,23.45
2022-12-05T22:38:29.175Z,20.33
2022-12-05T22:42:30.795Z,20.85
2022-12-05T22:46:32.427Z,25.77
2022-12-05T22:50:34.074Z,21.13
2022-12-05T22:54:35.706Z,20.98
2022-12-05T22:58:38.221Z,22.00
2022-12-05T23:02:40.021Z,21.67
2022-12-05T23:06:41.706Z,21.15
2022-12-05T23:10:43.553Z,20.98
2022-12-05T23:14:45.420Z,19.80
2022-12-05T23:18:47.792Z,18.98
2022-12-05T23:22:49.595Z,16.20
2022-12-05T23:26:51.357Z,20.35
2022-12-05T23:30:52.973Z,17.75
2022-12-05T23:34:54.872Z,18.83
2022-12-05T23:38:56.607Z,17.33
2022-12-05T23:42:58.347Z,21.38
2022-12-05T23:47:00.154Z,18.10
2022-12-05T23:51:06.835Z,19.50
2022-12-05T23:55:08.976Z,17.60
2022-12-05T23:59:10.836Z,15.43
